Time,TemperatureF,DewpointF,PressureIn,WindDirection,WindDirectionDegrees,WindSpeedMPH,WindSpeedGustMPH,Humidity,HourlyPrecipIn,Conditions,Clouds,dailyrainin,SoftwareType,DateUTC
2013-02-13 00:02:00,16.0,6.0,-100.00,WSW,246,18.0,23.0,65,0.00,,,-99.99,,2013-02-13 00:02:00,
2013-02-13 00:11:00,16.0,7.0,-100.00,WSW,248,19.0,27.0,66,0.00,,,-99.99,,2013-02-13 00:11:00,
2013-02-13 00:21:00,16.0,6.0,-100.00,WSW,248,21.0,30.0,65,0.00,,,-99.99,,2013-02-13 00:21:00,
2013-02-13 00:32:00,15.0,6.0,-100.00,WSW,251,24.0,31.0,64,0.00,,,-99.99,,2013-02-13 00:32:00,
2013-02-13 00:42:00,15.0,5.0,-100.00,WSW,253,25.0,32.0,64,0.00,,,-99.99,,2013-02-13 00:42:00,
2013-02-13 00:51:00,15.0,5.0,-100.00,WSW,254,25.0,32.0,63,0.00,,,-99.99,,2013-02-13 00:51:00,
2013-02-13 01:01:00,15.0,5.0,-100.00,WSW,251,24.0,30.0,65,0.00,,,-99.99,,2013-02-13 01:01:00,
2013-02-13 01:11:00,14.0,5.0,-100.00,WSW,258,23.0,29.0,66,0.00,,,-99.99,,2013-02-13 01:11:00,
2013-02-13 01:21:00,14.0,4.0,-100.00,West,260,23.0,30.0,65,0.00,,,-99.99,,2013-02-13 01:21:00,
2013-02-13 01:31:00,14.0,4.0,-100.00,West,264,26.0,32.0,66,0.00,,,-99.99,,2013-02-13 01:31:00,
2013-02-13 01:42:00,14.0,5.0,-100.00,West,261,26.0,34.0,66,0.00,,,-99.99,,2013-02-13 01:42:00,
2013-02-13 01:51:00,14.0,5.0,-100.00,WSW,257,26.0,34.0,66,0.00,,,-99.99,,2013-02-13 01:51:00,
2013-02-13 02:01:00,13.0,5.0,-100.00,WSW,256,28.0,35.0,68,0.00,,,-99.99,,2013-02-13 02:01:00,
2013-02-13 02:11:00,13.0,5.0,-100.00,WSW,256,27.0,34.0,71,0.00,,,-99.99,,2013-02-13 02:11:00,
2013-02-13 02:21:00,12.0,5.0,-100.00,WSW,256,25.0,34.0,72,0.00,,,-99.99,,2013-02-13 02:21:00,
2013-02-13 02:31:00,11.0,5.0,-100.00,West,260,21.0,29.0,73,0.00,,,-99.99,,2013-02-13 02:31:00,
2013-02-13 02:41:00,11.0,4.0,-100.00,West,260,20.0,27.0,73,0.00,,,-99.99,,2013-02-13 02:41:00,
2013-02-13 02:52:00,11.0,4.0,-100.00,West,260,21.0,26.0,74,0.00,,,-99.99,,2013-02-13 02:52:00,
2013-02-13 03:01:00,11.0,4.0,-100.00,West,264,21.0,26.0,75,0.00,,,-99.99,,2013-02-13 03:01:00,
2013-02-13 03:11:00,11.0,4.0,-100.00,West,264,22.0,28.0,74,0.00,,,-99.99,,2013-02-13 03:11:00,
2013-02-13 03:21:00,10.0,4.0,-100.00,West,263,21.0,27.0,75,0.00,,,-99.99,,2013-02-13 03:21:00,
2013-02-13 03:32:00,11.0,4.0,-100.00,West,264,24.0,28.0,74,0.00,,,-99.99,,2013-02-13 03:32:00,
2013-02-13 03:41:00,11.0,4.0,-100.00,West,265,24.0,32.0,76,0.00,,,-99.99,,2013-02-13 03:41:00,
2013-02-13 03:51:00,10.0,4.0,-100.00,West,265,26.0,32.0,78,0.00,,,-99.99,,2013-02-13 03:51:00,
2013-02-13 04:01:00,10.0,4.0,-100.00,West,264,28.0,35.0,77,0.00,,,-99.99,,2013-02-13 04:01:00,
2013-02-13 04:11:00,10.0,4.0,-100.00,West,264,30.0,38.0,77,0.00,,,-99.99,,2013-02-13 04:11:00,
2013-02-13 04:21:00,10.0,4.0,-100.00,West,263,30.0,39.0,77,0.00,,,-99.99,,2013-02-13 04:21:00,
2013-02-13 04:31:00,10.0,4.0,-100.00,West,264,32.0,42.0,76,0.00,,,-99.99,,2013-02-13 04:31:00,
2013-02-13 04:41:00,11.0,4.0,-100.00,West,267,34.0,44.0,77,0.00,,,-99.99,,2013-02-13 04:41:00,
2013-02-13 04:51:00,11.0,4.0,-100.00,West,268,32.0,44.0,75,0.00,,,-99.99,,2013-02-13 04:51:00,
2013-02-13 05:01:00,11.0,4.0,-100.00,West,268,32.0,39.0,75,0.00,,,-99.99,,2013-02-13 05:01:00,
2013-02-13 05:11:00,11.0,4.0,-100.00,West,267,30.0,36.0,74,0.00,,,-99.99,,2013-02-13 05:11:00,
2013-02-13 05:22:00,11.0,4.0,-100.00,West,264,32.0,39.0,73,0.00,,,-99.99,,2013-02-13 05:22:00,
2013-02-13 05:31:00,11.0,4.0,-100.00,West,260,29.0,39.0,75,0.00,,,-99.99,,2013-02-13 05:31:00,
2013-02-13 05:41:00,10.0,4.0,-100.00,WSW,258,29.0,38.0,76,0.00,,,-99.99,,2013-02-13 05:41:00,
2013-02-13 05:52:00,11.0,5.0,-100.00,WSW,256,30.0,40.0,75,0.00,,,-99.99,,2013-02-13 05:52:00,
2013-02-13 06:02:00,11.0,5.0,-100.00,WSW,256,32.0,40.0,76,0.00,,,-99.99,,2013-02-13 06:02:00,
2013-02-13 06:11:00,11.0,5.0,-100.00,WSW,254,30.0,39.0,77,0.00,,,-99.99,,2013-02-13 06:11:00,
2013-02-13 06:21:00,11.0,6.0,-100.00,WSW,253,30.0,37.0,76,0.00,,,-99.99,,2013-02-13 06:21:00,
2013-02-13 06:32:00,12.0,6.0,-100.00,WSW,254,31.0,42.0,76,0.00,,,-99.99,,2013-02-13 06:32:00,
2013-02-13 06:42:00,12.0,6.0,-100.00,WSW,253,32.0,41.0,76,0.00,,,-99.99,,2013-02-13 06:42:00,
2013-02-13 06:51:00,12.0,6.0,-100.00,WSW,254,32.0,39.0,77,0.00,,,-99.99,,2013-02-13 06:51:00,
2013-02-13 07:02:00,12.0,6.0,-100.00,WSW,254,34.0,43.0,77,0.00,,,-99.99,,2013-02-13 07:02:00,
2013-02-13 07:11:00,12.0,7.0,-100.00,WSW,254,32.0,39.0,78,0.00,,,-99.99,,2013-02-13 07:11:00,
2013-02-13 07:21:00,12.0,7.0,-100.00,WSW,254,30.0,37.0,78,0.00,,,-99.99,,2013-02-13 07:21:00,
2013-02-13 07:31:00,12.0,7.0,-100.00,WSW,256,29.0,40.0,78,0.00,,,-99.99,,2013-02-13 07:31:00,
2013-02-13 07:41:00,12.0,7.0,-100.00,WSW,256,29.0,38.0,78,0.00,,,-99.99,,2013-02-13 07:41:00,
2013-02-13 07:51:00,12.0,7.0,-100.00,WSW,258,28.0,35.0,79,0.00,,,-99.99,,2013-02-13 07:51:00,
2013-02-13 08:01:00,12.0,7.0,-100.00,West,260,29.0,37.0,80,0.00,,,-99.99,,2013-02-13 08:01:00,
2013-02-13 08:11:00,12.0,7.0,-100.00,West,261,31.0,40.0,80,0.00,,,-99.99,,2013-02-13 08:11:00,
2013-02-13 08:21:00,12.0,7.0,-100.00,West,263,30.0,40.0,80,0.00,,,-99.99,,2013-02-13 08:21:00,
2013-02-13 08:31:00,12.0,7.0,-100.00,West,260,30.0,38.0,79,0.00,,,-99.99,,2013-02-13 08:31:00,
2013-02-13 08:43:00,12.0,7.0,-100.00,West,264,33.0,40.0,80,0.00,,,-99.99,,2013-02-13 08:43:00,
2013-02-13 08:52:00,12.0,7.0,-100.00,West,265,32.0,40.0,79,0.00,,,-99.99,,2013-02-13 08:52:00,
2013-02-13 09:01:00,12.0,7.0,-100.00,West,265,32.0,40.0,79,0.00,,,-99.99,,2013-02-13 09:01:00,
2013-02-13 09:11:00,12.0,7.0,-100.00,West,264,32.0,38.0,79,0.00,,,-99.99,,2013-02-13 09:11:00,
2013-02-13 09:21:00,12.0,7.0,-100.00,West,263,31.0,37.0,79,0.00,,,-99.99,,2013-02-13 09:21:00,
2013-02-13 09:31:00,13.0,7.0,-100.00,West,263,32.0,42.0,78,0.00,,,-99.99,,2013-02-13 09:31:00,
2013-02-13 09:41:00,13.0,8.0,-100.00,West,260,32.0,45.0,79,0.00,,,-99.99,,2013-02-13 09:41:00,
2013-02-13 09:51:00,13.0,8.0,-100.00,WSW,258,35.0,45.0,79,0.00,,,-99.99,,2013-02-13 09:51:00,
2013-02-13 10:01:00,13.0,8.0,-100.00,West,260,35.0,47.0,79,0.00,,,-99.99,,2013-02-13 10:01:00,
2013-02-13 10:11:00,13.0,8.0,-100.00,West,261,35.0,45.0,80,0.00,,,-99.99,,2013-02-13 10:11:00,
2013-02-13 10:21:00,13.0,8.0,-100.00,West,260,35.0,45.0,80,0.00,,,-99.99,,2013-02-13 10:21:00,
2013-02-13 10:32:00,13.0,8.0,-100.00,WSW,257,37.0,50.0,81,0.00,,,-99.99,,2013-02-13 10:32:00,
2013-02-13 10:41:00,13.0,8.0,-100.00,WSW,258,35.0,50.0,81,0.00,,,-99.99,,2013-02-13 10:41:00,
2013-02-13 10:51:00,13.0,8.0,-100.00,West,260,35.0,44.0,80,0.00,,,-99.99,,2013-02-13 10:51:00,
2013-02-13 11:01:00,14.0,9.0,-100.00,WSW,256,36.0,50.0,80,0.00,,,-99.99,,2013-02-13 11:01:00,
2013-02-13 11:11:00,14.0,8.0,-100.00,WSW,258,37.0,49.0,79,0.00,,,-99.99,,2013-02-13 11:11:00,
2013-02-13 11:22:00,14.0,8.0,-100.00,WSW,257,36.0,44.0,79,0.00,,,-99.99,,2013-02-13 11:22:00,
2013-02-13 11:32:00,14.0,9.0,-100.00,WSW,256,35.0,45.0,79,0.00,,,-99.99,,2013-02-13 11:32:00,
2013-02-13 11:42:00,14.0,9.0,-100.00,WSW,254,35.0,44.0,80,0.00,,,-99.99,,2013-02-13 11:42:00,
2013-02-13 11:52:00,14.0,9.0,-100.00,WSW,254,36.0,46.0,79,0.00,,,-99.99,,2013-02-13 11:52:00,
2013-02-13 12:02:00,14.0,9.0,-100.00,WSW,253,37.0,46.0,78,0.00,,,-99.99,,2013-02-13 12:02:00,
2013-02-13 12:11:00,14.0,9.0,-100.00,WSW,254,37.0,46.0,77,0.00,,,-99.99,,2013-02-13 12:11:00,
2013-02-13 12:21:00,15.0,9.0,-100.00,WSW,257,37.0,46.0,77,0.00,,,-99.99,,2013-02-13 12:21:00,
2013-02-13 12:32:00,14.0,8.0,-100.00,WSW,258,35.0,50.0,76,0.00,,,-99.99,,2013-02-13 12:32:00,
2013-02-13 12:42:00,15.0,8.0,-100.00,WSW,258,32.0,43.0,76,0.00,,,-99.99,,2013-02-13 12:42:00,
2013-02-13 12:52:00,14.0,8.0,-100.00,West,263,34.0,43.0,77,0.00,,,-99.99,,2013-02-13 12:52:00,
2013-02-13 13:02:00,14.0,8.0,-100.00,West,261,33.0,39.0,77,0.00,,,-99.99,,2013-02-13 13:02:00,
2013-02-13 13:11:00,15.0,8.0,-100.00,West,263,32.0,39.0,76,0.00,,,-99.99,,2013-02-13 13:11:00,
2013-02-13 13:21:00,14.0,8.0,-100.00,West,263,34.0,40.0,77,0.00,,,-99.99,,2013-02-13 13:21:00,
2013-02-13 13:31:00,15.0,9.0,-100.00,West,261,32.0,41.0,77,0.00,,,-99.99,,2013-02-13 13:31:00,
2013-02-13 13:41:00,15.0,9.0,-100.00,West,264,34.0,41.0,76,0.00,,,-99.99,,2013-02-13 13:41:00,
2013-02-13 13:51:00,15.0,9.0,-100.00,West,263,33.0,41.0,77,0.00,,,-99.99,,2013-02-13 13:51:00,
2013-02-13 14:01:00,14.0,9.0,-100.00,West,263,30.0,36.0,78,0.00,,,-99.99,,2013-02-13 14:01:00,
2013-02-13 14:11:00,15.0,8.0,-100.00,West,263,29.0,35.0,77,0.00,,,-99.99,,2013-02-13 14:11:00,
2013-02-13 14:21:00,15.0,9.0,-100.00,West,261,29.0,35.0,76,0.00,,,-99.99,,2013-02-13 14:21:00,
2013-02-13 14:31:00,15.0,9.0,-100.00,West,264,29.0,37.0,75,0.00,,,-99.99,,2013-02-13 14:31:00,
2013-02-13 14:41:00,15.0,9.0,-100.00,West,263,27.0,35.0,75,0.00,,,-99.99,,2013-02-13 14:41:00,
2013-02-13 14:52:00,16.0,9.0,-100.00,WSW,258,29.0,39.0,75,0.00,,,-99.99,,2013-02-13 14:52:00,
2013-02-13 15:01:00,15.0,9.0,-100.00,WSW,256,30.0,39.0,76,0.00,,,-99.99,,2013-02-13 15:01:00,
2013-02-13 15:11:00,15.0,9.0,-100.00,WSW,258,31.0,40.0,77,0.00,,,-99.99,,2013-02-13 15:11:00,
2013-02-13 15:21:00,15.0,9.0,-100.00,WSW,254,28.0,39.0,78,0.00,,,-99.99,,2013-02-13 15:21:00,
2013-02-13 15:32:00,15.0,10.0,-100.00,WSW,256,29.0,40.0,78,0.00,,,-99.99,,2013-02-13 15:32:00,
2013-02-13 15:42:00,16.0,10.0,-100.00,WSW,256,30.0,43.0,78,0.00,,,-99.99,,2013-02-13 15:42:00,
2013-02-13 15:51:00,16.0,10.0,-100.00,WSW,253,30.0,39.0,78,0.00,,,-99.99,,2013-02-13 15:51:00,
2013-02-13 16:01:00,16.0,10.0,-100.00,WSW,256,38.0,47.0,78,0.00,,,-99.99,,2013-02-13 16:01:00,
2013-02-13 16:11:00,16.0,11.0,-100.00,WSW,253,35.0,45.0,79,0.00,,,-99.99,,2013-02-13 16:11:00,
2013-02-13 16:21:00,16.0,11.0,-100.00,WSW,250,32.0,42.0,79,0.00,,,-99.99,,2013-02-13 16:21:00,
2013-02-13 16:31:00,16.0,11.0,-100.00,WSW,248,28.0,38.0,79,0.00,,,-99.99,,2013-02-13 16:31:00,
2013-02-13 16:42:00,17.0,11.0,-100.00,WSW,250,30.0,42.0,79,0.00,,,-99.99,,2013-02-13 16:42:00,
2013-02-13 16:51:00,18.0,12.0,-100.00,WSW,250,29.0,37.0,77,0.00,,,-99.99,,2013-02-13 16:51:00,
2013-02-13 17:01:00,18.0,13.0,-100.00,WSW,248,28.0,37.0,78,0.00,,,-99.99,,2013-02-13 17:01:00,
2013-02-13 17:11:00,18.0,12.0,-100.00,WSW,253,26.0,37.0,77,0.00,,,-99.99,,2013-02-13 17:11:00,
2013-02-13 17:21:00,19.0,12.0,-100.00,WSW,251,27.0,37.0,76,0.00,,,-99.99,,2013-02-13 17:21:00,
2013-02-13 17:31:00,19.0,13.0,-100.00,WSW,244,26.0,34.0,76,0.00,,,-99.99,,2013-02-13 17:31:00,
2013-02-13 17:41:00,19.0,13.0,-100.00,SSW,203,26.0,35.0,77,0.00,,,-99.99,,2013-02-13 17:41:00,
2013-02-13 17:52:00,19.0,13.0,-100.00,SSW,203,26.0,38.0,76,0.00,,,-99.99,,2013-02-13 17:52:00,
2013-02-13 18:01:00,20.0,14.0,-100.00,SW,232,24.0,34.0,76,0.00,,,-99.99,,2013-02-13 18:01:00,
2013-02-13 18:11:00,21.0,14.0,-100.00,WSW,251,28.0,37.0,75,0.00,,,-99.99,,2013-02-13 18:11:00,
2013-02-13 18:22:00,21.0,14.0,-100.00,WSW,254,29.0,35.0,75,0.00,,,-99.99,,2013-02-13 18:22:00,
2013-02-13 18:41:00,21.0,15.0,-100.00,West,260,29.0,37.0,75,0.00,,,-99.99,,2013-02-13 18:41:00,
2013-02-13 18:52:00,23.0,15.0,-100.00,West,268,27.0,38.0,70,0.00,,,-99.99,,2013-02-13 18:52:00,
2013-02-13 19:01:00,23.0,14.0,-100.00,West,267,28.0,40.0,68,0.00,,,-99.99,,2013-02-13 19:01:00,
2013-02-13 19:11:00,23.0,14.0,-100.00,West,267,32.0,41.0,68,0.00,,,-99.99,,2013-02-13 19:11:00,
2013-02-13 19:21:00,23.0,14.0,-100.00,West,267,29.0,37.0,69,0.00,,,-99.99,,2013-02-13 19:21:00,
2013-02-13 19:31:00,23.0,14.0,-100.00,West,267,28.0,38.0,68,0.00,,,-99.99,,2013-02-13 19:31:00,
2013-02-13 19:41:00,23.0,13.0,-100.00,West,265,27.0,34.0,65,0.00,,,-99.99,,2013-02-13 19:41:00,
2013-02-13 19:51:00,23.0,13.0,-100.00,West,264,29.0,37.0,67,0.00,,,-99.99,,2013-02-13 19:51:00,
2013-02-13 20:02:00,24.0,14.0,-100.00,West,263,26.0,33.0,66,0.00,,,-99.99,,2013-02-13 20:02:00,
2013-02-13 20:11:00,24.0,14.0,-100.00,West,272,27.0,37.0,67,0.00,,,-99.99,,2013-02-13 20:11:00,
2013-02-13 20:21:00,23.0,14.0,-100.00,West,263,24.0,37.0,67,0.00,,,-99.99,,2013-02-13 20:21:00,
2013-02-13 20:31:00,23.0,14.0,-100.00,West,264,25.0,33.0,69,0.00,,,-99.99,,2013-02-13 20:31:00,
2013-02-13 20:41:00,24.0,15.0,-100.00,West,263,25.0,32.0,68,0.00,,,-99.99,,2013-02-13 20:41:00,
2013-02-13 20:52:00,23.0,14.0,-100.00,WSW,257,24.0,30.0,67,0.00,,,-99.99,,2013-02-13 20:52:00,
2013-02-13 21:01:00,23.0,15.0,-100.00,WSW,244,20.0,27.0,71,0.00,,,-99.99,,2013-02-13 21:01:00,
2013-02-13 21:11:00,23.0,15.0,-100.00,SSW,208,17.0,23.0,70,0.00,,,-99.99,,2013-02-13 21:11:00,
2013-02-13 21:21:00,23.0,14.0,-100.00,SSW,208,21.0,31.0,68,0.00,,,-99.99,,2013-02-13 21:21:00,
2013-02-13 21:31:00,23.0,14.0,-100.00,SSW,208,20.0,27.0,68,0.00,,,-99.99,,2013-02-13 21:31:00,
2013-02-13 21:42:00,24.0,13.0,-100.00,SSW,208,22.0,32.0,65,0.00,,,-99.99,,2013-02-13 21:42:00,
2013-02-13 21:52:00,23.0,13.0,-100.00,SSW,208,27.0,36.0,66,0.00,,,-99.99,,2013-02-13 21:52:00,
2013-02-13 22:02:00,24.0,14.0,-100.00,SSW,208,28.0,37.0,65,0.00,,,-99.99,,2013-02-13 22:02:00,
2013-02-13 22:11:00,24.0,14.0,-100.00,SSW,208,23.0,31.0,65,0.00,,,-99.99,,2013-02-13 22:11:00,
2013-02-13 22:21:00,24.0,14.0,-100.00,SSW,208,23.0,31.0,65,0.00,,,-99.99,,2013-02-13 22:21:00,
2013-02-13 22:31:00,24.0,14.0,-100.00,SSW,208,23.0,35.0,66,0.00,,,-99.99,,2013-02-13 22:31:00,
2013-02-13 22:42:00,23.0,14.0,-100.00,SSW,208,24.0,32.0,67,0.00,,,-99.99,,2013-02-13 22:42:00,
2013-02-13 22:51:00,23.0,14.0,-100.00,SSW,208,26.0,34.0,70,0.00,,,-99.99,,2013-02-13 22:51:00,
2013-02-13 23:01:00,23.0,15.0,-100.00,SSW,208,22.0,30.0,72,0.00,,,-99.99,,2013-02-13 23:01:00,
2013-02-13 23:11:00,22.0,15.0,-100.00,SSW,208,25.0,34.0,72,0.00,,,-99.99,,2013-02-13 23:11:00,
2013-02-13 23:21:00,22.0,15.0,-100.00,SSW,208,23.0,31.0,72,0.00,,,-99.99,,2013-02-13 23:21:00,
2013-02-13 23:32:00,22.0,15.0,-100.00,SSW,208,20.0,30.0,74,0.00,,,-99.99,,2013-02-13 23:32:00,
2013-02-13 23:41:00,22.0,15.0,-100.00,SSW,208,21.0,29.0,75,0.00,,,-99.99,,2013-02-13 23:41:00,
2013-02-13 23:52:00,22.0,15.0,-100.00,SSW,208,17.0,27.0,74,0.00,,,-99.99,,2013-02-13 23:52:00,